BER181 EDDF-EDDH
Flight info
| Callsign | BER181 |
|---|---|
| Flight time | 0h 47m |
| Altitude | 35000 |
| Route | MARUN3W/25C MARUN Y150 TOLGI DCT SAS P605 NOLGO NOLGO6A |
| Aircraft | B738/M-SDE2E3FGHIRWXY/LB1 |
Departure
| Time | 2026-05-06 14:51 |
|---|---|
| Airport | Frankfurt Main Airport (EDDF) |
Arrival
| Time | 2026-05-06 15:39 |
|---|---|
| Airport | Hamburg Helmut Schmidt Airport (EDDH) |
| Time | Latitude | Longitude | Altitude | Speed | Heading |
|---|---|---|---|---|---|
| 2026-05-06 14:09 | 50.04798 | 8.58424 | 360 ft | 0 kts | 160° |
| 2026-05-06 14:34 | 50.04807 | 8.58418 | 363 ft | 3 kts | 160° |
| 2026-05-06 14:34 | 50.04826 | 8.58407 | 361 ft | 3 kts | 159° |
| 2026-05-06 14:35 | 50.04845 | 8.58396 | 364 ft | 3 kts | 159° |
| 2026-05-06 14:35 | 50.04860 | 8.58387 | 364 ft | 3 kts | 145° |
| 2026-05-06 14:35 | 50.04871 | 8.58369 | 367 ft | 3 kts | 97° |
| 2026-05-06 14:35 | 50.04869 | 8.58340 | 365 ft | 3 kts | 70° |
| 2026-05-06 14:36 | 50.04867 | 8.58330 | 362 ft | 0 kts | 69° |
| 2026-05-06 14:40 | 50.04867 | 8.58331 | 360 ft | 0 kts | 69° |
| 2026-05-06 14:40 | 50.04875 | 8.58362 | 366 ft | 7 kts | 69° |
| 2026-05-06 14:40 | 50.04900 | 8.58467 | 363 ft | 13 kts | 69° |
| 2026-05-06 14:40 | 50.04931 | 8.58598 | 362 ft | 13 kts | 74° |
| 2026-05-06 14:41 | 50.04879 | 8.58688 | 362 ft | 12 kts | 160° |
| 2026-05-06 14:41 | 50.04799 | 8.58735 | 363 ft | 12 kts | 159° |
| 2026-05-06 14:41 | 50.04719 | 8.58771 | 360 ft | 12 kts | 181° |
| 2026-05-06 14:41 | 50.04638 | 8.58759 | 364 ft | 12 kts | 186° |
| 2026-05-06 14:42 | 50.04569 | 8.58705 | 367 ft | 11 kts | 219° |
| 2026-05-06 14:42 | 50.04513 | 8.58655 | 369 ft | 8 kts | 185° |
| 2026-05-06 14:42 | 50.04493 | 8.58617 | 367 ft | 0 kts | 250° |
| 2026-05-06 14:43 | 50.04492 | 8.58615 | 367 ft | 2 kts | 250° |
| 2026-05-06 14:43 | 50.04478 | 8.58551 | 367 ft | 0 kts | 250° |
| 2026-05-06 14:43 | 50.04478 | 8.58550 | 367 ft | 0 kts | 250° |
| 2026-05-06 14:44 | 50.04476 | 8.58544 | 366 ft | 3 kts | 250° |
| 2026-05-06 14:45 | 50.04239 | 8.57554 | 365 ft | 51 kts | 250° |
| 2026-05-06 14:45 | 50.04182 | 8.57314 | 368 ft | 23 kts | 249° |
| 2026-05-06 14:45 | 50.04175 | 8.57105 | 363 ft | 19 kts | 279° |
| 2026-05-06 14:45 | 50.04197 | 8.56915 | 363 ft | 12 kts | 283° |
| 2026-05-06 14:46 | 50.04243 | 8.56858 | 366 ft | 9 kts | 8° |
| 2026-05-06 14:46 | 50.04282 | 8.56929 | 360 ft | 9 kts | 69° |
| 2026-05-06 14:46 | 50.04304 | 8.57019 | 362 ft | 9 kts | 69° |
| 2026-05-06 14:46 | 50.04333 | 8.57138 | 362 ft | 15 kts | 70° |
| 2026-05-06 14:47 | 50.04371 | 8.57300 | 366 ft | 16 kts | 70° |
| 2026-05-06 14:47 | 50.04409 | 8.57461 | 360 ft | 16 kts | 70° |
| 2026-05-06 14:47 | 50.04446 | 8.57615 | 364 ft | 15 kts | 70° |
| 2026-05-06 14:47 | 50.04481 | 8.57763 | 362 ft | 14 kts | 70° |
| 2026-05-06 14:48 | 50.04515 | 8.57905 | 366 ft | 14 kts | 70° |
| 2026-05-06 14:48 | 50.04547 | 8.58041 | 364 ft | 13 kts | 70° |
| 2026-05-06 14:48 | 50.04578 | 8.58171 | 362 ft | 13 kts | 69° |
| 2026-05-06 14:48 | 50.04609 | 8.58298 | 362 ft | 12 kts | 69° |
| 2026-05-06 14:49 | 50.04639 | 8.58421 | 362 ft | 12 kts | 69° |
| 2026-05-06 14:49 | 50.04648 | 8.58541 | 362 ft | 12 kts | 123° |
| 2026-05-06 14:49 | 50.04579 | 8.58597 | 362 ft | 11 kts | 159° |
| 2026-05-06 14:49 | 50.04508 | 8.58635 | 368 ft | 8 kts | 174° |
| 2026-05-06 14:50 | 50.04491 | 8.58614 | 365 ft | 0 kts | 251° |
| 2026-05-06 14:50 | 50.04489 | 8.58604 | 367 ft | 5 kts | 251° |
| 2026-05-06 14:51 | 50.04396 | 8.58210 | 368 ft | 76 kts | 250° |
| 2026-05-06 14:51 | 50.04134 | 8.57116 | 366 ft | 137 kts | 250° |
| 2026-05-06 14:51 | 50.03775 | 8.55611 | 793 ft | 155 kts | 249° |
| 2026-05-06 14:51 | 50.03392 | 8.54008 | 1494 ft | 164 kts | 251° |
| 2026-05-06 14:52 | 50.02988 | 8.52347 | 2365 ft | 166 kts | 249° |
| 2026-05-06 14:52 | 50.02513 | 8.50591 | 2866 ft | 187 kts | 241° |
| 2026-05-06 14:52 | 50.01664 | 8.48925 | 3313 ft | 203 kts | 220° |
| 2026-05-06 14:52 | 50.00370 | 8.47929 | 3890 ft | 216 kts | 194° |
| 2026-05-06 14:53 | 49.98777 | 8.47586 | 4115 ft | 249 kts | 190° |
| 2026-05-06 14:53 | 49.97004 | 8.47209 | 4782 ft | 258 kts | 189° |
| 2026-05-06 14:53 | 49.95249 | 8.46868 | 5860 ft | 251 kts | 191° |
| 2026-05-06 14:53 | 49.93551 | 8.46165 | 6630 ft | 255 kts | 204° |
| 2026-05-06 14:54 | 49.92005 | 8.44841 | 7508 ft | 253 kts | 218° |
| 2026-05-06 14:54 | 49.90755 | 8.42947 | 8432 ft | 252 kts | 234° |
| 2026-05-06 14:54 | 49.90090 | 8.40414 | 9173 ft | 258 kts | 266° |
| 2026-05-06 14:54 | 49.90505 | 8.37748 | 10054 ft | 262 kts | 299° |
| 2026-05-06 14:55 | 49.91960 | 8.35946 | 10627 ft | 277 kts | 339° |
| 2026-05-06 14:55 | 49.93762 | 8.34983 | 11364 ft | 283 kts | 336° |
| 2026-05-06 14:55 | 49.95661 | 8.33742 | 11522 ft | 309 kts | 334° |
| 2026-05-06 14:55 | 49.97702 | 8.32357 | 11780 ft | 331 kts | 334° |
| 2026-05-06 14:56 | 49.99845 | 8.30928 | 12340 ft | 341 kts | 334° |
| 2026-05-06 14:56 | 50.02107 | 8.29666 | 12978 ft | 349 kts | 346° |
| 2026-05-06 14:56 | 50.04534 | 8.29508 | 13830 ft | 353 kts | 7° |
| 2026-05-06 14:56 | 50.06918 | 8.30513 | 14527 ft | 357 kts | 17° |
| 2026-05-06 14:57 | 50.09300 | 8.31731 | 15283 ft | 360 kts | 17° |
| 2026-05-06 14:57 | 50.11691 | 8.32953 | 16010 ft | 365 kts | 17° |
| 2026-05-06 14:57 | 50.14135 | 8.34183 | 16632 ft | 373 kts | 17° |
| 2026-05-06 14:57 | 50.16630 | 8.35418 | 17382 ft | 377 kts | 17° |
| 2026-05-06 14:58 | 50.19147 | 8.36648 | 18151 ft | 381 kts | 16° |
| 2026-05-06 14:58 | 50.21685 | 8.37876 | 18834 ft | 384 kts | 16° |
| 2026-05-06 14:58 | 50.24243 | 8.39108 | 19517 ft | 386 kts | 16° |
| 2026-05-06 14:58 | 50.26823 | 8.40348 | 20148 ft | 390 kts | 16° |
| 2026-05-06 14:59 | 50.29434 | 8.41601 | 20771 ft | 393 kts | 16° |
| 2026-05-06 14:59 | 50.32021 | 8.42845 | 21396 ft | 396 kts | 16° |
| 2026-05-06 14:59 | 50.34666 | 8.44117 | 22000 ft | 399 kts | 15° |
| 2026-05-06 14:59 | 50.37340 | 8.45405 | 22521 ft | 405 kts | 15° |
| 2026-05-06 15:00 | 50.40047 | 8.46709 | 23119 ft | 408 kts | 15° |
| 2026-05-06 15:00 | 50.42756 | 8.48094 | 23684 ft | 411 kts | 20° |
| 2026-05-06 15:00 | 50.45306 | 8.50189 | 24126 ft | 418 kts | 33° |
| 2026-05-06 15:00 | 50.47666 | 8.52880 | 24591 ft | 422 kts | 36° |
| 2026-05-06 15:01 | 50.50016 | 8.55676 | 25056 ft | 425 kts | 37° |
| 2026-05-06 15:01 | 50.52373 | 8.58503 | 25522 ft | 428 kts | 37° |
| 2026-05-06 15:01 | 50.54752 | 8.61345 | 25968 ft | 431 kts | 37° |
| 2026-05-06 15:01 | 50.57160 | 8.64200 | 26338 ft | 437 kts | 36° |
| 2026-05-06 15:02 | 50.59628 | 8.67109 | 26550 ft | 446 kts | 36° |
| 2026-05-06 15:02 | 50.62119 | 8.70036 | 27025 ft | 447 kts | 36° |
| 2026-05-06 15:02 | 50.64618 | 8.72968 | 27554 ft | 448 kts | 36° |
| 2026-05-06 15:02 | 50.67124 | 8.75909 | 27990 ft | 450 kts | 36° |
| 2026-05-06 15:03 | 50.69650 | 8.78876 | 28385 ft | 454 kts | 37° |
| 2026-05-06 15:03 | 50.72160 | 8.81830 | 28758 ft | 457 kts | 37° |
| 2026-05-06 15:03 | 50.74748 | 8.84880 | 29162 ft | 460 kts | 37° |
| 2026-05-06 15:03 | 50.77284 | 8.87873 | 29558 ft | 462 kts | 37° |
| 2026-05-06 15:04 | 50.79901 | 8.90966 | 29916 ft | 465 kts | 37° |
| 2026-05-06 15:04 | 50.82455 | 8.93990 | 30298 ft | 465 kts | 37° |
| 2026-05-06 15:04 | 50.85037 | 8.97051 | 30776 ft | 463 kts | 37° |
| 2026-05-06 15:04 | 50.87635 | 9.00136 | 31265 ft | 461 kts | 37° |
| 2026-05-06 15:05 | 50.90169 | 9.03148 | 31669 ft | 461 kts | 37° |
| 2026-05-06 15:05 | 50.92736 | 9.06205 | 32052 ft | 461 kts | 37° |
| 2026-05-06 15:05 | 50.95304 | 9.09267 | 32460 ft | 460 kts | 37° |
| 2026-05-06 15:05 | 50.97857 | 9.12315 | 32895 ft | 459 kts | 37° |
| 2026-05-06 15:06 | 51.00401 | 9.15358 | 33355 ft | 457 kts | 37° |
| 2026-05-06 15:06 | 51.02932 | 9.18388 | 33809 ft | 455 kts | 37° |
| 2026-05-06 15:06 | 51.05457 | 9.21414 | 34111 ft | 455 kts | 37° |
| 2026-05-06 15:06 | 51.07964 | 9.24419 | 34337 ft | 456 kts | 36° |
| 2026-05-06 15:07 | 51.10660 | 9.27089 | 34567 ft | 457 kts | 26° |
| 2026-05-06 15:07 | 51.13584 | 9.29075 | 34779 ft | 457 kts | 17° |
| 2026-05-06 15:07 | 51.16675 | 9.30339 | 34773 ft | 458 kts | 10° |
| 2026-05-06 15:08 | 51.22927 | 9.32266 | 34771 ft | 454 kts | 9° |
| 2026-05-06 15:08 | 51.29103 | 9.34314 | 34770 ft | 452 kts | 10° |
| 2026-05-06 15:09 | 51.35222 | 9.36450 | 34782 ft | 453 kts | 11° |
| 2026-05-06 15:09 | 51.41373 | 9.38612 | 34808 ft | 453 kts | 11° |
| 2026-05-06 15:10 | 51.47537 | 9.40777 | 34805 ft | 453 kts | 10° |
| 2026-05-06 15:10 | 51.53703 | 9.42946 | 34807 ft | 454 kts | 10° |
| 2026-05-06 15:11 | 51.59881 | 9.45125 | 34799 ft | 454 kts | 10° |
| 2026-05-06 15:11 | 51.66067 | 9.47313 | 34798 ft | 454 kts | 10° |
| 2026-05-06 15:12 | 51.72247 | 9.49506 | 34804 ft | 454 kts | 10° |
| 2026-05-06 15:12 | 51.78344 | 9.51676 | 34795 ft | 443 kts | 10° |
| 2026-05-06 15:13 | 51.84276 | 9.54280 | 34796 ft | 447 kts | 22° |
| 2026-05-06 15:13 | 51.89846 | 9.58823 | 34811 ft | 449 kts | 27° |
| 2026-05-06 15:14 | 51.95387 | 9.63552 | 34814 ft | 451 kts | 26° |
| 2026-05-06 15:14 | 52.00969 | 9.68238 | 34805 ft | 451 kts | 26° |
| 2026-05-06 15:15 | 52.06478 | 9.72823 | 34336 ft | 440 kts | 26° |
| 2026-05-06 15:15 | 52.09214 | 9.75100 | 33852 ft | 442 kts | 26° |
| 2026-05-06 15:15 | 52.11956 | 9.77385 | 33291 ft | 444 kts | 26° |
| 2026-05-06 15:15 | 52.14702 | 9.79678 | 32782 ft | 443 kts | 26° |
| 2026-05-06 15:16 | 52.17476 | 9.81668 | 32192 ft | 441 kts | 17° |
| 2026-05-06 15:16 | 52.20486 | 9.82835 | 31182 ft | 448 kts | 7° |
| 2026-05-06 15:16 | 52.23601 | 9.83608 | 30232 ft | 456 kts | 7° |
| 2026-05-06 15:16 | 52.26762 | 9.84336 | 29222 ft | 460 kts | 7° |
| 2026-05-06 15:17 | 52.29959 | 9.85073 | 28078 ft | 466 kts | 7° |
| 2026-05-06 15:17 | 52.33182 | 9.85839 | 26918 ft | 471 kts | 7° |
| 2026-05-06 15:17 | 52.36434 | 9.86637 | 25802 ft | 475 kts | 8° |
| 2026-05-06 15:17 | 52.39709 | 9.87461 | 24878 ft | 476 kts | 8° |
| 2026-05-06 15:18 | 52.42934 | 9.88289 | 24669 ft | 460 kts | 8° |
| 2026-05-06 15:18 | 52.46040 | 9.89094 | 24552 ft | 443 kts | 8° |
| 2026-05-06 15:18 | 52.49003 | 9.89863 | 24306 ft | 432 kts | 8° |
| 2026-05-06 15:18 | 52.51960 | 9.90631 | 23722 ft | 430 kts | 8° |
| 2026-05-06 15:19 | 52.54917 | 9.91397 | 23103 ft | 429 kts | 8° |
| 2026-05-06 15:19 | 52.57861 | 9.92161 | 22499 ft | 426 kts | 8° |
| 2026-05-06 15:19 | 52.60777 | 9.92918 | 21894 ft | 422 kts | 8° |
| 2026-05-06 15:19 | 52.63672 | 9.93671 | 21258 ft | 420 kts | 8° |
| 2026-05-06 15:20 | 52.66552 | 9.94420 | 20659 ft | 418 kts | 8° |
| 2026-05-06 15:20 | 52.69419 | 9.95167 | 20137 ft | 414 kts | 8° |
| 2026-05-06 15:20 | 52.72252 | 9.95907 | 19626 ft | 411 kts | 8° |
| 2026-05-06 15:20 | 52.75061 | 9.96641 | 19106 ft | 408 kts | 8° |
| 2026-05-06 15:21 | 52.77863 | 9.97373 | 18601 ft | 406 kts | 8° |
| 2026-05-06 15:21 | 52.80647 | 9.98103 | 18111 ft | 405 kts | 8° |
| 2026-05-06 15:21 | 52.83422 | 9.98830 | 17560 ft | 402 kts | 8° |
| 2026-05-06 15:21 | 52.86181 | 9.99555 | 17024 ft | 398 kts | 8° |
| 2026-05-06 15:22 | 52.88905 | 10.00271 | 16486 ft | 395 kts | 8° |
| 2026-05-06 15:22 | 52.91612 | 10.00984 | 15985 ft | 392 kts | 8° |
| 2026-05-06 15:22 | 52.94290 | 10.01690 | 15502 ft | 389 kts | 8° |
| 2026-05-06 15:22 | 52.96932 | 10.02387 | 15016 ft | 387 kts | 8° |
| 2026-05-06 15:23 | 52.99584 | 10.03088 | 14565 ft | 384 kts | 8° |
| 2026-05-06 15:23 | 53.02214 | 10.03784 | 14123 ft | 381 kts | 8° |
| 2026-05-06 15:23 | 53.04834 | 10.04478 | 13641 ft | 380 kts | 8° |
| 2026-05-06 15:23 | 53.07444 | 10.05170 | 13124 ft | 377 kts | 9° |
| 2026-05-06 15:24 | 53.10025 | 10.05856 | 12669 ft | 373 kts | 8° |
| 2026-05-06 15:24 | 53.12570 | 10.06496 | 12379 ft | 366 kts | 8° |
| 2026-05-06 15:24 | 53.15063 | 10.07103 | 12172 ft | 356 kts | 8° |
| 2026-05-06 15:24 | 53.17451 | 10.07673 | 11960 ft | 347 kts | 8° |
| 2026-05-06 15:25 | 53.19817 | 10.08228 | 11745 ft | 339 kts | 8° |
| 2026-05-06 15:25 | 53.22130 | 10.08766 | 11546 ft | 332 kts | 8° |
| 2026-05-06 15:25 | 53.24392 | 10.09284 | 11335 ft | 325 kts | 8° |
| 2026-05-06 15:25 | 53.26623 | 10.09787 | 11126 ft | 320 kts | 8° |
| 2026-05-06 15:26 | 53.28806 | 10.10273 | 10919 ft | 314 kts | 8° |
| 2026-05-06 15:26 | 53.30953 | 10.10742 | 10761 ft | 309 kts | 7° |
| 2026-05-06 15:26 | 53.33083 | 10.10618 | 10651 ft | 303 kts | 355° |
| 2026-05-06 15:26 | 53.35126 | 10.10781 | 10474 ft | 291 kts | 19° |
| 2026-05-06 15:27 | 53.37044 | 10.11766 | 10246 ft | 288 kts | 17° |
| 2026-05-06 15:27 | 53.39000 | 10.12391 | 10084 ft | 284 kts | 3° |
| 2026-05-06 15:27 | 53.40907 | 10.11745 | 10020 ft | 280 kts | 336° |
| 2026-05-06 15:27 | 53.42400 | 10.09750 | 9947 ft | 275 kts | 308° |
| 2026-05-06 15:28 | 53.43206 | 10.06856 | 9689 ft | 277 kts | 281° |
| 2026-05-06 15:28 | 53.43410 | 10.03737 | 9598 ft | 269 kts | 274° |
| 2026-05-06 15:28 | 53.43537 | 10.00621 | 9344 ft | 268 kts | 274° |
| 2026-05-06 15:28 | 53.43671 | 9.97473 | 9065 ft | 269 kts | 275° |
| 2026-05-06 15:29 | 53.43795 | 9.94363 | 8895 ft | 266 kts | 274° |
| 2026-05-06 15:29 | 53.43907 | 9.91246 | 8639 ft | 266 kts | 274° |
| 2026-05-06 15:29 | 53.43946 | 9.88162 | 8470 ft | 263 kts | 262° |
| 2026-05-06 15:29 | 53.43312 | 9.85285 | 8132 ft | 264 kts | 237° |
| 2026-05-06 15:30 | 53.42301 | 9.82788 | 8009 ft | 259 kts | 234° |
| 2026-05-06 15:30 | 53.41270 | 9.80301 | 7718 ft | 261 kts | 234° |
| 2026-05-06 15:30 | 53.40233 | 9.77815 | 7576 ft | 258 kts | 233° |
| 2026-05-06 15:30 | 53.39202 | 9.75361 | 7336 ft | 259 kts | 233° |
| 2026-05-06 15:31 | 53.38164 | 9.72918 | 7177 ft | 255 kts | 233° |
| 2026-05-06 15:31 | 53.37178 | 9.70473 | 6956 ft | 255 kts | 243° |
| 2026-05-06 15:31 | 53.36785 | 9.67587 | 6691 ft | 256 kts | 274° |
| 2026-05-06 15:32 | 53.37989 | 9.63319 | 6421 ft | 244 kts | 323° |
| 2026-05-06 15:32 | 53.39475 | 9.62112 | 6199 ft | 237 kts | 353° |
| 2026-05-06 15:32 | 53.41077 | 9.62234 | 5996 ft | 229 kts | 20° |
| 2026-05-06 15:32 | 53.42524 | 9.63274 | 5831 ft | 225 kts | 26° |
| 2026-05-06 15:33 | 53.43985 | 9.64277 | 5638 ft | 226 kts | 23° |
| 2026-05-06 15:33 | 53.45451 | 9.65250 | 5397 ft | 228 kts | 24° |
| 2026-05-06 15:33 | 53.46873 | 9.66379 | 5221 ft | 224 kts | 39° |
| 2026-05-06 15:33 | 53.47963 | 9.68221 | 4915 ft | 222 kts | 50° |
| 2026-05-06 15:34 | 53.48939 | 9.70145 | 4746 ft | 210 kts | 51° |
| 2026-05-06 15:34 | 53.49852 | 9.72012 | 4415 ft | 204 kts | 52° |
| 2026-05-06 15:34 | 53.50749 | 9.73855 | 3996 ft | 203 kts | 51° |
| 2026-05-06 15:34 | 53.51663 | 9.75706 | 3487 ft | 205 kts | 51° |
| 2026-05-06 15:35 | 53.52556 | 9.77514 | 3047 ft | 199 kts | 51° |
| 2026-05-06 15:35 | 53.53416 | 9.79250 | 2796 ft | 188 kts | 51° |
| 2026-05-06 15:35 | 53.54221 | 9.80900 | 2456 ft | 177 kts | 51° |
| 2026-05-06 15:35 | 53.54972 | 9.82427 | 2198 ft | 165 kts | 51° |
| 2026-05-06 15:36 | 53.55695 | 9.83903 | 1967 ft | 163 kts | 51° |
| 2026-05-06 15:36 | 53.56419 | 9.85382 | 1836 ft | 165 kts | 51° |
| 2026-05-06 15:36 | 53.57151 | 9.86883 | 1614 ft | 165 kts | 50° |
| 2026-05-06 15:36 | 53.57858 | 9.88338 | 1383 ft | 155 kts | 51° |
| 2026-05-06 15:37 | 53.58526 | 9.89673 | 1174 ft | 141 kts | 50° |
| 2026-05-06 15:37 | 53.59118 | 9.90881 | 970 ft | 132 kts | 51° |
| 2026-05-06 15:37 | 53.59692 | 9.92075 | 743 ft | 130 kts | 50° |
| 2026-05-06 15:37 | 53.60274 | 9.93230 | 590 ft | 132 kts | 48° |
| 2026-05-06 15:38 | 53.60893 | 9.94470 | 402 ft | 142 kts | 51° |
| 2026-05-06 15:38 | 53.61510 | 9.95730 | 216 ft | 140 kts | 51° |
| 2026-05-06 15:38 | 53.62127 | 9.96986 | 54 ft | 134 kts | 50° |
| 2026-05-06 15:38 | 53.62659 | 9.98054 | 42 ft | 97 kts | 51° |
| 2026-05-06 15:39 | 53.62954 | 9.98649 | 42 ft | 41 kts | 50° |
| 2026-05-06 15:39 | 53.63121 | 9.98986 | 45 ft | 34 kts | 50° |
| 2026-05-06 15:39 | 53.63254 | 9.99254 | 47 ft | 24 kts | 50° |
| 2026-05-06 15:39 | 53.63293 | 9.99477 | 44 ft | 20 kts | 89° |
| 2026-05-06 15:40 | 53.63278 | 9.99651 | 44 ft | 8 kts | 98° |